Time;durP1;ratioP1;P1;durP2;ratioP2;P2;SDS_P1;SDS_P2;PMS_P1;PMS_P2;Temp;Humidity;BMP_temperature;BMP_pressure;BME280_temperature;BME280_humidity;BME280_pressure;Samples;Min_cycle;Max_cycle;Signal;HPM_P1;HPM_P2
2022/10/26 00:01:11;;;;;;;20.48;13.02;;;;;;;8.86;100.00;100733.81;4847596;29;20123;-78
2022/10/26 00:03:40;;;;;;;16.77;12.10;;;;;;;8.86;100.00;100736.69;4879422;29;20378;-77
2022/10/26 00:06:09;;;;;;;21.70;13.60;;;;;;;8.82;100.00;100728.28;4879832;29;20082;-79
2022/10/26 00:08:41;;;;;;;23.73;12.65;;;;;;;8.82;100.00;100733.97;4879613;29;20035;-80
2022/10/26 00:11:10;;;;;;;19.90;12.85;;;;;;;8.81;100.00;100730.34;4879284;29;20043;-80
2022/10/26 00:13:52;;;;;;;25.10;12.82;;;;;;;8.77;100.00;100732.53;4878296;29;20029;-78
2022/10/26 00:16:22;;;;;;;20.20;12.20;;;;;;;8.78;100.00;100736.97;4879006;29;20025;-80
2022/10/26 00:18:48;;;;;;;21.48;13.13;;;;;;;8.76;100.00;100739.50;4879376;29;20568;-78
2022/10/26 00:21:14;;;;;;;25.50;13.43;;;;;;;8.75;100.00;100742.84;4878570;29;20061;-80
2022/10/26 00:23:45;;;;;;;25.38;14.18;;;;;;;8.69;100.00;100741.88;4879115;29;20037;-81
2022/10/26 00:26:11;;;;;;;20.65;12.77;;;;;;;8.69;100.00;100748.34;4877538;29;20100;-80
2022/10/26 00:28:36;;;;;;;18.58;12.50;;;;;;;8.68;100.00;100754.50;4877862;29;20033;-81
2022/10/26 00:31:05;;;;;;;19.33;11.98;;;;;;;8.64;100.00;100759.56;4877703;29;20041;-80
2022/10/26 00:33:31;;;;;;;21.08;12.48;;;;;;;8.61;100.00;100754.78;4877590;29;20089;-79
2022/10/26 00:35:57;;;;;;;21.23;11.32;;;;;;;8.59;100.00;100751.63;4862776;29;20386;-79
2022/10/26 00:38:25;;;;;;;16.05;11.07;;;;;;;8.57;100.00;100763.47;4880578;29;20475;-79
2022/10/26 00:40:56;;;;;;;16.90;12.63;;;;;;;8.55;100.00;100754.63;4879536;29;20037;-79
2022/10/26 00:43:21;;;;;;;17.98;11.48;;;;;;;8.57;100.00;100754.16;4877638;29;20489;-80
2022/10/26 00:45:53;;;;;;;18.40;11.02;;;;;;;8.54;100.00;100747.34;4878952;29;20033;-80
2022/10/26 00:48:25;;;;;;;21.33;10.82;;;;;;;8.56;100.00;100749.72;4861269;29;20037;-79
2022/10/26 00:50:53;;;;;;;18.88;11.60;;;;;;;8.53;100.00;100751.44;4878904;29;20033;-79
2022/10/26 00:53:19;;;;;;;18.52;10.95;;;;;;;8.52;100.00;100752.69;4878117;29;20432;-79
2022/10/26 00:56:01;;;;;;;17.08;10.55;;;;;;;8.52;100.00;100752.69;4878819;29;20096;-80
2022/10/26 00:58:27;;;;;;;19.55;10.93;;;;;;;8.49;100.00;100745.09;4863275;29;20025;-81
2022/10/26 01:00:54;;;;;;;19.13;11.30;;;;;;;8.45;100.00;100740.81;4880461;29;20032;-82
2022/10/26 01:03:23;;;;;;;27.25;12.57;;;;;;;8.47;100.00;100749.66;4879313;29;20459;-81
2022/10/26 01:05:50;;;;;;;18.75;11.30;;;;;;;8.44;100.00;100745.72;4848499;29;20265;-81
2022/10/26 01:08:17;;;;;;;21.52;11.40;;;;;;;8.39;100.00;100754.88;4847845;29;20041;-81
2022/10/26 01:10:42;;;;;;;16.13;11.68;;;;;;;8.35;100.00;100751.38;4880066;29;20037;-81
2022/10/26 01:13:14;;;;;;;20.27;11.88;;;;;;;8.14;100.00;100727.34;4879376;29;20040;-80
2022/10/26 01:16:28;;;;;;;22.08;12.43;;;;;;;8.28;100.00;100752.44;4879014;29;20041;-80
2022/10/26 01:19:27;;;;;;;22.35;11.50;;;;;;;8.26;100.00;100752.09;4867294;29;20049;-80
2022/10/26 01:22:06;;;;;;;19.15;11.10;;;;;;;8.17;100.00;100743.50;4878374;29;20025;-81
2022/10/26 01:25:26;;;;;;;19.40;11.60;;;;;;;8.23;100.00;100743.69;4881076;29;20033;-80
2022/10/26 01:27:52;;;;;;;16.17;10.48;;;;;;;8.20;100.00;100751.13;4882204;29;20033;-80
2022/10/26 01:30:27;;;;;;;19.48;11.63;;;;;;;8.18;100.00;100750.78;4881602;29;20105;-80
2022/10/26 01:33:37;;;;;;;18.67;11.25;;;;;;;8.15;100.00;100743.16;4882410;29;20527;-79
2022/10/26 01:36:47;;;;;;;17.65;11.00;;;;;;;8.11;100.00;100748.22;4870072;29;20386;-80
2022/10/26 01:39:46;;;;;;;16.05;10.38;;;;;;;8.07;100.00;100744.69;4862173;29;20532;-80
2022/10/26 01:42:29;;;;;;;18.10;11.00;;;;;;;8.01;100.00;100735.19;4871385;29;20063;-80
2022/10/26 01:45:06;;;;;;;21.50;11.13;;;;;;;8.01;100.00;100742.91;4880778;29;20044;-80
2022/10/26 01:47:42;;;;;;;20.55;10.95;;;;;;;7.96;100.00;100741.47;4866153;29;20459;-81
2022/10/26 01:50:09;;;;;;;19.35;10.88;;;;;;;7.89;100.00;100738.88;4883093;29;20542;-80
2022/10/26 01:52:36;;;;;;;18.77;11.32;;;;;;;7.85;100.00;100739.00;4881525;29;20041;-80
2022/10/26 01:55:38;;;;;;;18.95;10.82;;;;;;;7.82;100.00;100733.44;4866297;29;20447;-80
2022/10/26 01:58:13;;;;;;;22.60;11.93;;;;;;;7.76;100.00;100732.47;4881601;29;20463;-80
2022/10/26 02:00:44;;;;;;;20.27;11.40;;;;;;;7.74;100.00;100740.66;4881684;29;20033;-80
2022/10/26 02:03:39;;;;;;;20.98;11.70;;;;;;;7.67;100.00;100735.25;4881659;29;20061;-81
2022/10/26 02:06:33;;;;;;;21.50;12.25;;;;;;;7.65;100.00;100732.06;4882488;29;20142;-80
2022/10/26 02:09:09;;;;;;;21.42;12.63;;;;;;;7.59;100.00;100728.22;4882694;29;20028;-78
2022/10/26 02:11:46;;;;;;;16.90;11.30;;;;;;;7.55;100.00;100731.19;4881258;29;20044;-79
2022/10/26 02:14:45;;;;;;;28.67;13.32;;;;;;;7.53;100.00;100725.16;4851101;29;20029;-79
2022/10/26 02:17:34;;;;;;;22.35;13.05;;;;;;;7.47;100.00;100727.81;4881208;29;20033;-79
2022/10/26 02:20:06;;;;;;;22.67;12.23;;;;;;;7.42;100.00;100728.38;4880670;29;20124;-80
2022/10/26 02:22:42;;;;;;;22.00;12.15;;;;;;;7.39;100.00;100723.63;4866006;29;20044;-81
2022/10/26 02:25:15;;;;;;;18.90;11.90;;;;;;;7.35;100.00;100727.88;4881177;29;20093;-79
2022/10/26 02:27:46;;;;;;;22.10;12.20;;;;;;;7.38;100.00;100729.78;4881494;29;20056;-80
2022/10/26 02:30:12;;;;;;;18.45;12.25;;;;;;;7.36;100.00;100727.41;4865854;29;20021;-80
2022/10/26 02:32:44;;;;;;;24.55;12.70;;;;;;;7.38;100.00;100732.63;4881013;29;20029;-80
2022/10/26 02:35:11;;;;;;;20.80;10.07;;;;;;;7.37;100.00;100728.97;4880123;29;20040;-80
2022/10/26 02:37:38;;;;;;;20.60;11.98;;;;;;;7.36;100.00;100726.63;4865978;29;20033;-80
2022/10/26 02:40:10;;;;;;;19.77;11.75;;;;;;;7.37;100.00;100731.06;4880908;29;20081;-80
2022/10/26 02:42:39;;;;;;;17.30;10.85;;;;;;;7.32;100.00;100723.13;4880877;29;20402;-80
2022/10/26 02:45:09;;;;;;;19.60;11.43;;;;;;;7.34;100.00;100727.06;4881094;29;20029;-79
2022/10/26 02:47:41;;;;;;;20.45;11.05;;;;;;;7.33;100.00;100730.38;4865447;29;20048;-81
2022/10/26 02:50:08;;;;;;;26.95;12.10;;;;;;;7.32;100.00;100732.44;4881247;29;20060;-81
2022/10/26 02:53:01;;;;;;;20.35;13.05;;;;;;;7.29;100.00;100738.22;4881055;29;20069;-82
2022/10/26 02:55:40;;;;;;;23.92;12.25;;;;;;;7.28;100.00;100736.63;4882171;29;20041;-79
2022/10/26 02:58:12;;;;;;;27.17;11.55;;;;;;;7.24;100.00;100739.59;4882051;29;20036;-79
2022/10/26 03:00:37;;;;;;;;;;;;;;;7.20;100.00;100743.81;4879968;29;20064;-79
2022/10/26 03:03:08;;;;;;;20.10;10.85;;;;;;;7.11;100.00;100736.03;4899091;29;19965;-81
2022/10/26 03:05:40;;;;;;;20.67;12.07;;;;;;;7.17;100.00;100747.59;4898668;29;20516;-81
2022/10/26 03:08:05;;;;;;;;;;;;;;;7.16;100.00;100746.00;4898504;29;20033;-81
2022/10/26 03:10:31;;;;;;;19.30;11.30;;;;;;;6.95;100.00;100719.13;4899211;29;19933;-80
2022/10/26 03:12:57;;;;;;;18.25;11.07;;;;;;;6.94;100.00;100726.84;4898095;29;20039;-80
2022/10/26 03:15:26;;;;;;;20.73;11.20;;;;;;;7.10;100.00;100748.63;4913505;29;20449;-81
2022/10/26 03:17:57;;;;;;;20.15;10.68;;;;;;;7.05;100.00;100747.16;4899948;29;20085;-81
2022/10/26 03:20:23;;;;;;;25.60;12.00;;;;;;;7.09;100.00;100758.41;4914293;29;20029;-81
2022/10/26 03:22:51;;;;;;;18.60;11.18;;;;;;;6.98;100.00;100738.88;4898667;29;20088;-81
2022/10/26 03:25:18;;;;;;;17.65;10.02;;;;;;;7.05;100.00;100749.22;4897543;29;20032;-81
2022/10/26 03:27:43;;;;;;;20.05;10.35;;;;;;;7.11;100.00;100761.59;4900159;29;20450;-81
2022/10/26 03:30:10;;;;;;;18.23;10.80;;;;;;;7.06;100.00;100753.66;4899602;29;20044;-80
2022/10/26 03:32:44;;;;;;;16.80;10.05;;;;;;;7.09;100.00;100758.41;4882832;29;20024;-81
2022/10/26 03:35:12;;;;;;;23.10;11.13;;;;;;;7.08;100.00;100760.44;4900165;29;20024;-81
2022/10/26 03:37:38;;;;;;;17.50;10.93;;;;;;;7.09;100.00;100762.03;4900309;29;20025;-83
2022/10/26 03:40:04;;;;;;;18.15;11.68;;;;;;;7.07;100.00;100752.41;4900028;29;20036;-81
2022/10/26 03:42:35;;;;;;;18.25;10.93;;;;;;;7.01;100.00;100751.38;4900172;29;20028;-81
2022/10/26 03:45:03;;;;;;;25.40;11.60;;;;;;;7.01;100.00;100757.84;4899836;29;20127;-81
2022/10/26 03:47:28;;;;;;;22.65;12.48;;;;;;;6.98;100.00;100766.47;4883515;29;20035;-81
2022/10/26 03:49:56;;;;;;;22.10;11.40;;;;;;;6.96;100.00;100769.81;4898628;29;20022;-80
2022/10/26 03:52:23;;;;;;;21.98;11.63;;;;;;;6.94;100.00;100766.59;4898708;29;20127;-80
2022/10/26 03:55:03;;;;;;;21.92;11.70;;;;;;;6.93;100.00;100770.69;4898970;29;20028;-80
2022/10/26 03:57:31;;;;;;;20.25;11.50;;;;;;;6.87;100.00;100763.22;4883209;29;20115;-81
2022/10/26 03:59:56;;;;;;;17.90;11.32;;;;;;;6.85;100.00;100760.03;4914800;29;20032;-81
2022/10/26 04:02:22;;;;;;;18.85;11.05;;;;;;;6.87;100.00;100766.06;4914177;29;20377;-81
2022/10/26 04:04:48;;;;;;;24.05;12.15;;;;;;;6.84;100.00;100758.44;4882428;29;20112;-81
2022/10/26 04:07:13;;;;;;;23.70;12.27;;;;;;;6.87;100.00;100768.91;4899546;29;20473;-82
2022/10/26 04:09:40;;;;;;;18.23;12.38;;;;;;;6.86;100.00;100759.59;4900073;29;20119;-82
2022/10/26 04:12:06;;;;;;;21.30;13.65;;;;;;;6.86;100.00;100762.44;4899665;29;20041;-82
2022/10/26 04:14:32;;;;;;;23.90;13.80;;;;;;;6.87;100.00;100774.59;4867243;29;20047;-81
2022/10/26 04:16:57;;;;;;;28.23;12.23;;;;;;;6.87;100.00;100775.38;4898548;29;20069;-81
2022/10/26 04:19:24;;;;;;;22.13;12.57;;;;;;;6.89;100.00;100775.69;4882536;29;20056;-82
2022/10/26 04:21:52;;;;;;;23.17;12.77;;;;;;;6.88;100.00;100776.19;4899708;29;20060;-81
2022/10/26 04:24:20;;;;;;;21.40;12.60;;;;;;;6.87;100.00;100780.28;4899298;29;20485;-80
2022/10/26 04:26:45;;;;;;;17.33;11.88;;;;;;;6.81;100.00;100765.03;4899171;29;20040;-82
2022/10/26 04:29:12;;;;;;;17.70;11.32;;;;;;;6.87;100.00;100778.22;4898200;29;20025;-81
2022/10/26 04:31:40;;;;;;;22.25;12.50;;;;;;;6.82;100.00;100760.97;4898479;29;20108;-82
2022/10/26 04:34:06;;;;;;;21.55;11.52;;;;;;;6.86;100.00;100764.47;4899378;29;20081;-81
2022/10/26 04:36:33;;;;;;;24.70;13.32;;;;;;;6.85;100.00;100765.72;4899753;29;20020;-82
2022/10/26 04:39:00;;;;;;;26.85;13.60;;;;;;;6.83;100.00;100759.72;4898487;29;20040;-83
2022/10/26 04:41:28;;;;;;;24.75;13.15;;;;;;;6.80;100.00;100760.59;4898636;29;20051;-83
2022/10/26 04:43:57;;;;;;;22.48;12.57;;;;;;;6.77;100.00;100764.38;4882314;29;20029;-82
2022/10/26 04:46:23;;;;;;;19.35;11.88;;;;;;;6.78;100.00;100772.41;4897412;29;20033;-79
2022/10/26 04:48:49;;;;;;;19.08;12.35;;;;;;;6.77;100.00;100770.03;4898723;29;20032;-82
2022/10/26 04:51:18;;;;;;;25.08;11.95;;;;;;;6.78;100.00;100780.16;4897762;29;20089;-79
2022/10/26 04:53:43;;;;;;;22.85;12.82;;;;;;;6.76;100.00;100765.63;4882232;29;20104;-83
2022/10/26 04:56:10;;;;;;;23.80;12.00;;;;;;;6.75;100.00;100772.53;4898872;29;20104;-78
2022/10/26 04:58:38;;;;;;;21.25;12.52;;;;;;;6.76;100.00;100769.25;4900651;29;20188;-80
2022/10/26 05:01:04;;;;;;;19.73;11.55;;;;;;;6.77;100.00;100778.56;4903039;29;20033;-78
2022/10/26 05:03:29;;;;;;;22.65;13.48;;;;;;;6.75;100.00;100784.69;4901599;29;20025;-79
2022/10/26 05:05:58;;;;;;;22.83;14.52;;;;;;;6.72;100.00;100779.94;4902057;29;20470;-82
2022/10/26 05:08:26;;;;;;;25.48;14.68;;;;;;;6.69;100.00;100783.66;4902775;29;20051;-82
2022/10/26 05:10:53;;;;;;;25.98;13.60;;;;;;;6.65;100.00;100774.47;4885659;29;20051;-80
2022/10/26 05:13:19;;;;;;;19.38;12.35;;;;;;;6.61;100.00;100785.16;4902437;29;20036;-78
2022/10/26 05:15:45;;;;;;;25.42;12.90;;;;;;;6.43;100.00;100756.53;4901060;29;20038;-78
2022/10/26 05:18:14;;;;;;;31.50;13.68;;;;;;;6.55;100.00;100781.28;4889878;29;20471;-78
2022/10/26 05:20:41;;;;;;;20.70;13.25;;;;;;;6.48;100.00;100773.81;4881169;29;20045;-78
2022/10/26 05:23:10;;;;;;;21.40;11.98;;;;;;;6.47;100.00;100786.41;4882585;29;20037;-80
2022/10/26 05:25:37;;;;;;;22.30;12.02;;;;;;;6.45;100.00;100788.88;4881344;29;20037;-79
2022/10/26 05:28:18;;;;;;;23.15;12.10;;;;;;;6.43;100.00;100790.59;4882885;29;20040;-79
2022/10/26 05:30:45;;;;;;;28.13;12.23;;;;;;;6.40;100.00;100783.75;4880337;29;20474;-80
2022/10/26 05:33:12;;;;;;;25.00;12.85;;;;;;;6.43;100.00;100796.28;4882941;29;20117;-82
2022/10/26 05:35:39;;;;;;;23.50;12.52;;;;;;;6.46;100.00;100798.19;4882449;29;20068;-81
2022/10/26 05:38:13;;;;;;;25.17;13.10;;;;;;;6.36;100.00;100785.13;4882570;29;20063;-81
2022/10/26 05:40:46;;;;;;;24.85;15.18;;;;;;;6.51;100.00;100795.59;4883457;29;20040;-82
2022/10/26 05:43:12;;;;;;;22.00;12.95;;;;;;;6.54;100.00;100803.19;4865428;29;20053;-81
2022/10/26 05:45:39;;;;;;;25.50;11.63;;;;;;;6.58;100.00;100803.88;4882262;29;20072;-81
2022/10/26 05:48:09;;;;;;;23.80;12.45;;;;;;;6.51;100.00;100781.41;4880703;29;20033;-80
2022/10/26 05:50:44;;;;;;;25.35;14.48;;;;;;;6.48;100.00;100788.00;4881677;29;20037;-82
2022/10/26 05:53:10;;;;;;;19.05;12.77;;;;;;;6.69;100.00;100803.53;4880553;29;20128;-81
2022/10/26 05:55:36;;;;;;;22.40;12.10;;;;;;;6.73;100.00;100797.78;4882044;29;20060;-80
2022/10/26 05:58:02;;;;;;;27.55;12.82;;;;;;;6.77;100.00;100801.28;4881569;29;20041;-82
2022/10/26 06:00:33;;;;;;;21.05;11.30;;;;;;;6.78;100.00;100809.34;4882321;29;20514;-81
2022/10/26 06:03:36;;;;;;;23.48;12.35;;;;;;;6.85;100.00;100817.63;4881273;29;20100;-83
2022/10/26 06:06:10;;;;;;;28.35;12.82;;;;;;;6.91;100.00;100812.19;4882346;29;20188;-82
2022/10/26 06:08:36;;;;;;;24.48;11.45;;;;;;;6.93;100.00;100819.00;4880690;29;20029;-82
2022/10/26 06:11:10;;;;;;;18.67;11.90;;;;;;;6.83;100.00;100790.97;4881926;29;20029;-82
2022/10/26 06:13:43;;;;;;;22.60;13.02;;;;;;;7.04;100.00;100818.66;4882118;29;20462;-82
2022/10/26 06:16:22;;;;;;;20.83;12.23;;;;;;;7.09;100.00;100818.88;4883209;29;20028;-82
2022/10/26 06:19:20;;;;;;;21.42;10.57;;;;;;;7.13;100.00;100817.97;4883174;29;20037;-82
2022/10/26 06:22:10;;;;;;;21.42;10.55;;;;;;;7.19;100.00;100828.28;4881543;29;20036;-81
2022/10/26 06:24:57;;;;;;;20.88;12.43;;;;;;;7.24;100.00;100827.72;4881904;29;20133;-81
2022/10/26 06:27:41;;;;;;;28.40;12.85;;;;;;;7.31;100.00;100824.66;4883148;29;20037;-82
2022/10/26 06:30:10;;;;;;;19.90;11.02;;;;;;;7.37;100.00;100825.63;4883218;29;20037;-81
2022/10/26 06:32:45;;;;;;;18.08;11.95;;;;;;;7.46;100.00;100827.81;4896602;29;20041;-81
2022/10/26 06:35:39;;;;;;;18.15;11.02;;;;;;;7.56;100.00;100825.84;4897152;29;20025;-81
2022/10/26 06:38:08;;;;;;;25.85;12.75;;;;;;;7.65;100.00;100831.59;4882294;29;20033;-81
2022/10/26 06:40:37;;;;;;;24.88;12.63;;;;;;;7.68;100.00;100820.09;4881781;29;20071;-82
2022/10/26 06:43:09;;;;;;;22.63;12.52;;;;;;;7.82;100.00;100833.81;4865452;29;20037;-82
2022/10/26 06:45:36;;;;;;;20.10;12.48;;;;;;;7.86;100.00;100840.19;4881200;29;20112;-81
2022/10/26 06:48:09;;;;;;;25.08;11.23;;;;;;;7.97;100.00;100839.78;4896926;29;20116;-82
2022/10/26 06:50:51;;;;;;;18.58;11.55;;;;;;;8.05;100.00;100837.47;4896357;29;20063;-83
2022/10/26 06:53:32;;;;;;;20.27;12.85;;;;;;;8.12;100.00;100840.06;4882259;29;20514;-81
2022/10/26 06:56:01;;;;;;;20.08;12.23;;;;;;;8.18;100.00;100841.88;4882466;29;20120;-82
2022/10/26 06:58:33;;;;;;;15.45;11.05;;;;;;;8.27;100.00;100844.78;4881201;29;20484;-79
2022/10/26 07:01:00;;;;;;;19.92;10.52;;;;;;;8.28;100.00;100839.91;4880778;29;20039;-80
2022/10/26 07:03:26;;;;;;;22.58;10.55;;;;;;;8.35;100.00;100842.47;4880595;29;20033;-78
2022/10/26 07:05:52;;;;;;;19.90;11.13;;;;;;;8.36;100.00;100849.78;4881406;29;20467;-78
2022/10/26 07:08:18;;;;;;;40.25;13.10;;;;;;;8.34;100.00;100829.50;4881600;29;20033;-78
2022/10/26 07:10:45;;;;;;;31.33;12.75;;;;;;;8.45;100.00;100843.34;4880194;29;20048;-81
2022/10/26 07:13:11;;;;;;;27.80;11.90;;;;;;;8.46;100.00;100839.22;4881299;29;20176;-80
2022/10/26 07:15:38;;;;;;;18.98;11.48;;;;;;;8.58;100.00;100842.00;4866321;29;20567;-81
2022/10/26 07:18:05;;;;;;;23.20;11.48;;;;;;;8.72;100.00;100844.28;4874136;29;20067;-78
2022/10/26 07:20:36;;;;;;;73.10;16.67;;;;;;;9.12;100.00;100837.78;4872964;29;20033;-79
2022/10/26 07:23:07;;;;;;;29.10;10.65;;;;;;;9.89;100.00;100845.09;4879302;29;20403;-77
2022/10/26 07:25:33;;;;;;;46.03;13.32;;;;;;;10.73;100.00;100845.31;4861009;29;20045;-77
2022/10/26 07:27:59;;;;;;;30.25;11.15;;;;;;;11.63;100.00;100848.25;4872490;29;20470;-78
2022/10/26 07:30:32;;;;;;;67.47;13.77;;;;;;;12.44;100.00;100829.63;4861276;29;20048;-79
2022/10/26 07:33:12;;;;;;;26.65;9.43;;;;;;;13.22;100.00;100838.75;4860329;29;20566;-80
2022/10/26 07:35:38;;;;;;;26.20;8.95;;;;;;;13.93;100.00;100829.59;4862453;29;20033;-81
2022/10/26 07:38:25;;;;;;;22.02;9.30;;;;;;;14.54;100.00;100824.53;4845792;29;20132;-80
2022/10/26 07:40:53;;;;;;;90.38;15.55;;;;;;;15.09;100.00;100835.75;4861730;29;20049;-80
2022/10/26 07:43:20;;;;;;;22.05;8.00;;;;;;;15.55;100.00;100834.78;4862321;29;20113;-79
2022/10/26 07:45:49;;;;;;;57.25;13.57;;;;;;;15.94;100.00;100830.03;4846284;29;20037;-80
2022/10/26 07:48:15;;;;;;;15.27;7.70;;;;;;;16.27;100.00;100825.66;4862512;29;20033;-79
2022/10/26 07:50:41;;;;;;;25.98;9.20;;;;;;;16.60;100.00;100822.88;4861400;29;20030;-79
2022/10/26 07:53:06;;;;;;;10.88;6.25;;;;;;;16.82;100.00;100810.56;4863635;29;20124;-78
2022/10/26 07:55:31;;;;;;;11.88;7.00;;;;;;;17.16;100.00;100840.22;4888959;29;20094;-77
2022/10/26 07:57:57;;;;;;;14.52;6.93;;;;;;;17.35;100.00;100849.91;4898313;29;20071;-77
2022/10/26 08:00:22;;;;;;;14.25;7.60;;;;;;;17.56;100.00;100850.44;4897420;29;20359;-77
2022/10/26 08:02:49;;;;;;;11.73;7.47;;;;;;;17.61;100.00;100844.66;4899883;29;20041;-78
2022/10/26 08:05:18;;;;;;;10.98;6.38;;;;;;;17.58;100.00;100848.59;4864091;29;20136;-77
2022/10/26 08:07:44;;;;;;;9.02;6.68;;;;;;;17.46;100.00;100843.34;4881762;29;20489;-78
2022/10/26 08:10:10;;;;;;;9.85;5.57;;;;;;;17.37;100.00;100838.63;4898378;29;20032;-78
2022/10/26 08:12:35;;;;;;;8.27;5.90;;;;;;;17.28;100.00;100838.91;4899605;29;20033;-77
2022/10/26 08:15:01;;;;;;;14.52;6.78;;;;;;;17.26;100.00;100841.53;4898990;29;20099;-76
2022/10/26 08:17:27;;;;;;;11.65;6.18;;;;;;;17.25;100.00;100837.84;4898908;29;20049;-75
2022/10/26 08:19:53;;;;;;;15.52;6.53;;;;;;;17.24;100.00;100847.06;4897964;29;20124;-77
2022/10/26 08:22:18;;;;;;;13.02;7.47;;;;;;;17.22;100.00;100843.91;4898705;29;20080;-76
2022/10/26 08:24:45;;;;;;;12.35;6.85;;;;;;;17.13;100.00;100844.16;4899249;29;20028;-78
2022/10/26 08:27:14;;;;;;;17.10;8.52;;;;;;;16.97;100.00;100843.66;4897579;29;20039;-77
2022/10/26 08:29:41;;;;;;;11.85;6.75;;;;;;;16.79;100.00;100838.41;4899038;29;20052;-80
2022/10/26 08:32:10;;;;;;;16.98;7.07;;;;;;;16.54;100.00;100837.31;4897843;29;20359;-79
2022/10/26 08:34:36;;;;;;;16.67;7.10;;;;;;;16.35;100.00;100841.94;4882279;29;20032;-82
2022/10/26 08:37:01;;;;;;;13.00;6.90;;;;;;;16.03;100.00;100817.47;4885324;29;20452;-80
2022/10/26 08:39:29;;;;;;;10.13;7.13;;;;;;;15.89;100.00;100836.53;4901865;29;20036;-79
2022/10/26 08:42:05;;;;;;;27.55;9.25;;;;;;;15.67;100.00;100836.41;4901374;29;20398;-80
2022/10/26 08:44:33;;;;;;;59.70;11.00;;;;;;;15.49;100.00;100836.81;4868907;29;20056;-79
2022/10/26 08:47:22;;;;;;;23.73;8.60;;;;;;;15.32;100.00;100839.59;4899065;29;20032;-79
2022/10/26 08:49:57;;;;;;;19.42;8.45;;;;;;;15.12;100.00;100837.59;4886056;29;20043;-80
2022/10/26 08:52:28;;;;;;;20.50;8.85;;;;;;;15.03;100.00;100834.91;4906983;29;20028;-79
2022/10/26 08:54:57;;;;;;;19.13;8.48;;;;;;;14.97;100.00;100842.72;4898317;29;20032;-80
2022/10/26 08:57:48;;;;;;;54.25;11.23;;;;;;;14.84;100.00;100830.84;4897418;29;20486;-80
2022/10/26 09:00:26;;;;;;;17.98;8.95;;;;;;;14.79;100.00;100845.97;4896534;29;20037;-79
2022/10/26 09:02:53;;;;;;;25.15;9.00;;;;;;;14.73;100.00;100843.03;4898660;29;20024;-78
2022/10/26 09:05:31;;;;;;;19.17;8.52;;;;;;;14.69;100.00;100845.34;4881939;29;20049;-79
2022/10/26 09:08:20;;;;;;;19.70;9.68;;;;;;;14.66;100.00;100842.72;4904423;29;20154;-80
2022/10/26 09:11:20;;;;;;;14.15;7.43;;;;;;;14.65;100.00;100850.56;4908770;29;20025;-80
2022/10/26 09:14:07;;;;;;;16.88;7.10;;;;;;;14.64;100.00;100851.06;4906523;29;20042;-80
2022/10/26 09:16:59;;;;;;;9.82;6.13;;;;;;;14.65;100.00;100846.88;4899290;29;20047;-80
2022/10/26 09:19:31;;;;;;;16.50;8.00;;;;;;;14.66;100.00;100845.59;4898719;29;20036;-80
2022/10/26 09:22:05;;;;;;;24.15;7.57;;;;;;;14.67;100.00;100850.06;4898519;29;20427;-80
2022/10/26 09:24:32;;;;;;;18.58;7.70;;;;;;;14.70;100.00;100857.66;4897948;29;20025;-81
2022/10/26 09:27:28;;;;;;;34.35;10.30;;;;;;;14.72;100.00;100852.19;4897282;29;20036;-81
2022/10/26 09:29:57;;;;;;;15.88;7.13;;;;;;;14.67;100.00;100830.72;4890049;29;20040;-80
2022/10/26 09:32:35;;;;;;;19.52;8.32;;;;;;;14.78;100.00;100853.00;4881689;29;20537;-80
2022/10/26 09:35:19;;;;;;;20.15;6.60;;;;;;;14.66;100.00;100840.63;4896814;29;20028;-81
2022/10/26 09:37:52;;;;;;;13.18;6.57;;;;;;;14.82;100.00;100854.38;4897402;29;20021;-80
2022/10/26 09:40:18;;;;;;;15.75;6.40;;;;;;;14.82;100.00;100853.59;4881942;29;20127;-80
2022/10/26 09:43:14;;;;;;;16.85;7.95;;;;;;;14.84;100.00;100856.75;4897076;29;20036;-81
2022/10/26 09:45:48;;;;;;;11.40;6.50;;;;;;;14.84;100.00;100848.09;4901518;29;20030;-81
2022/10/26 09:48:18;;;;;;;14.73;7.00;;;;;;;14.95;100.00;100862.59;4900819;29;20028;-80
2022/10/26 09:50:52;;;;;;;14.30;6.95;;;;;;;14.95;100.00;100856.84;4902083;29;20029;-80
2022/10/26 09:53:18;;;;;;;16.33;7.53;;;;;;;15.00;100.00;100858.19;4901310;29;20381;-81
2022/10/26 09:55:48;;;;;;;11.13;5.82;;;;;;;15.03;100.00;100852.19;4901583;29;20112;-80
2022/10/26 09:58:19;;;;;;;15.18;7.22;;;;;;;15.10;100.00;100869.00;4900097;29;20114;-81
2022/10/26 10:00:46;;;;;;;9.27;6.35;;;;;;;15.15;100.00;100862.50;4900340;29;20033;-80
2022/10/26 10:03:26;;;;;;;10.30;6.00;;;;;;;15.03;100.00;100846.44;4901116;29;20032;-80
2022/10/26 10:05:52;;;;;;;11.88;5.35;;;;;;;15.23;100.00;100863.63;4900279;29;20065;-80
2022/10/26 10:08:22;;;;;;;20.70;6.75;;;;;;;15.29;100.00;100860.78;4901274;29;20060;-81
2022/10/26 10:11:07;;;;;;;18.00;6.07;;;;;;;15.33;100.00;100857.66;4900530;29;20545;-81
2022/10/26 10:14:04;;;;;;;9.73;5.70;;;;;;;15.37;100.00;100876.28;4898940;29;20044;-81
2022/10/26 10:16:50;;;;;;;16.77;5.97;;;;;;;15.40;100.00;100866.63;4900003;29;20060;-81
2022/10/26 10:19:26;;;;;;;13.65;5.95;;;;;;;15.37;100.00;100858.19;4900614;29;20028;-80
2022/10/26 10:21:54;;;;;;;15.98;6.03;;;;;;;15.45;100.00;100862.19;4899566;29;20127;-81
2022/10/26 10:24:31;;;;;;;17.20;5.13;;;;;;;15.51;100.00;100860.16;4883296;29;20533;-80
2022/10/26 10:27:01;;;;;;;15.77;5.57;;;;;;;15.47;100.00;100836.53;4883625;29;20036;-80
2022/10/26 10:29:31;;;;;;;12.52;5.05;;;;;;;15.70;100.00;100864.22;4900386;29;20040;-80
2022/10/26 10:32:00;;;;;;;21.33;5.53;;;;;;;15.67;100.00;100847.94;4899328;29;20059;-82
2022/10/26 10:34:30;;;;;;;8.45;4.45;;;;;;;15.87;100.00;100862.19;4899289;29;20167;-80
2022/10/26 10:36:58;;;;;;;10.02;4.32;;;;;;;15.81;100.00;100849.84;4898865;29;20047;-80
2022/10/26 10:39:33;;;;;;;11.70;5.40;;;;;;;15.88;100.00;100851.47;4900431;29;20035;-80
2022/10/26 10:41:59;;;;;;;10.10;5.28;;;;;;;15.92;100.00;100869.31;4899409;29;20466;-80
2022/10/26 10:44:30;;;;;;;7.85;4.93;;;;;;;15.87;100.00;100861.41;4899295;29;20072;-81
2022/10/26 10:47:08;;;;;;;8.75;4.70;;;;;;;15.78;100.00;100853.78;4899157;29;20398;-80
2022/10/26 10:49:33;;;;;;;25.10;7.05;;;;;;;15.80;100.00;100853.28;4914757;29;20029;-80
2022/10/26 10:52:00;;;;;;;22.42;8.65;;;;;;;15.81;100.00;100857.75;4899262;29;20039;-81
2022/10/26 10:54:31;;;;;;;13.65;5.22;;;;;;;15.83;100.00;100861.66;4898364;29;20032;-80
2022/10/26 10:57:02;;;;;;;;;;;;;;;15.77;100.00;100862.94;4899250;29;20127;-81
2022/10/26 10:59:28;;;;;;;24.17;5.57;;;;;;;15.79;100.00;100852.47;4898681;29;19927;-82
2022/10/26 11:02:17;;;;;;;8.48;3.65;;;;;;;15.81;100.00;100858.50;4899687;29;20028;-80
2022/10/26 11:05:00;;;;;;;14.50;4.40;;;;;;;15.82;100.00;100865.84;4724794;29;3585728;-81
2022/10/26 11:07:27;;;;;;;34.45;6.93;;;;;;;15.85;100.00;100866.94;4861031;29;20060;-81
2022/10/26 11:09:53;;;;;;;15.90;4.97;;;;;;;15.78;100.00;100856.66;4886477;29;20048;-80
2022/10/26 11:12:43;;;;;;;21.33;4.28;;;;;;;15.80;100.00;100848.31;4899072;29;20029;-80
2022/10/26 11:15:14;;;;;;;19.85;4.25;;;;;;;15.51;100.00;100819.81;4882976;29;20477;-81
2022/10/26 11:17:57;;;;;;;14.47;3.57;;;;;;;15.85;100.00;100858.28;4898969;29;20048;-80
2022/10/26 11:20:24;;;;;;;11.57;4.95;;;;;;;15.87;100.00;100856.44;4899436;29;20490;-80
2022/10/26 11:22:59;;;;;;;7.38;3.65;;;;;;;15.92;100.00;100866.41;4899759;29;20099;-79
2022/10/26 11:25:32;;;;;;;15.48;4.30;;;;;;;15.93;100.00;100856.47;4899147;29;20036;-80
2022/10/26 11:28:12;;;;;;;16.10;3.67;;;;;;;15.92;100.00;100857.78;4900439;29;20500;-80
2022/10/26 11:30:42;;;;;;;9.52;3.38;;;;;;;15.92;100.00;100857.78;4899457;29;20047;-79
2022/10/26 11:33:24;;;;;;;137.38;18.27;;;;;;;15.96;100.00;100861.19;4898510;29;20036;-80